BF2 weather

CLOSED Finbow Airport
British Columbia, Canada

Public forecast

Using degrees Celsius for public forecast. Weather courtesy of forecast.io.

Closest aviation weather report (METAR) to Finbow Airport

Closest report is Fort Nelson Airport, 130.7 nm (242.1 km) NE. Retrieved 2019/10/21 09:00 UTC (37 minutes ago):

CYYE 210900Z 24004KT 5SM -SN BKN006 OVC012 01/00 A2983 RMK SF5ST3 SLP123

Closest aviation forecast (TAF) to Finbow Airport

Closest forecast is Fort Nelson Airport, 130.7 nm (242.1 km) NE. Retrieved 2019/10/21 07:39 UTC (2 hours ago):

TAF CYYE 210638Z 2107/2119 VRB03KT P6SM OVC012 TEMPO 2107/2109 3SM -DZSN BR OVC006 FM210900 VRB03KT P6SM SCT003 OVC006 TEMPO 2109/2116 1SM -SN BR OVC003 PROB40 2109/2116 1/2SM FZFG VV002 FM211600 VRB03KT P6SM FEW003 SCT006 RMK NXT FCST BY 211300Z